Time;durP1;ratioP1;P1;durP2;ratioP2;P2;SDS_P1;SDS_P2;PMS_P1;PMS_P2;Temp;Humidity;BMP_temperature;BMP_pressure;BME280_temperature;BME280_humidity;BME280_pressure;Samples;Min_cycle;Max_cycle;Signal;HPM_P1;HPM_P2
2023/06/06 00:01:09;;;;;;;6.38;3.28;;;10.00;99.90;;;;;;5038882;28;20397;-78
2023/06/06 00:03:35;;;;;;;8.23;3.20;;;10.00;99.90;;;;;;5043051;28;20032;-78
2023/06/06 00:06:00;;;;;;;6.82;3.25;;;9.90;99.90;;;;;;5044074;28;20400;-79
2023/06/06 00:08:28;;;;;;;5.70;3.45;;;9.90;99.90;;;;;;5025934;28;20433;-78
2023/06/06 00:10:56;;;;;;;8.90;3.42;;;9.80;99.90;;;;;;5016539;28;20021;-77
2023/06/06 00:13:22;;;;;;;5.15;3.05;;;9.80;99.90;;;;;;5006371;28;20034;-78
2023/06/06 00:15:47;;;;;;;7.68;3.10;;;9.80;99.90;;;;;;5024402;28;20604;-78
2023/06/06 00:18:13;;;;;;;9.85;3.45;;;9.80;99.90;;;;;;5028649;28;20861;-77
2023/06/06 00:20:40;;;;;;;7.38;3.08;;;9.80;99.90;;;;;;5017787;28;20034;-78
2023/06/06 00:23:07;;;;;;;8.65;3.70;;;9.70;99.90;;;;;;5006009;28;20043;-78
2023/06/06 00:25:33;;;;;;;6.63;3.25;;;9.70;99.90;;;;;;5006497;28;20339;-79
2023/06/06 00:27:58;;;;;;;9.60;3.38;;;9.70;99.90;;;;;;5005834;28;20120;-78
2023/06/06 00:30:24;;;;;;;7.30;2.97;;;9.70;99.90;;;;;;5005937;28;20025;-78
2023/06/06 00:32:49;;;;;;;7.47;3.47;;;9.70;99.90;;;;;;5025238;28;20029;-78
2023/06/06 00:35:15;;;;;;;9.77;3.83;;;9.70;99.90;;;;;;5008858;28;20116;-78
2023/06/06 00:37:41;;;;;;;12.18;4.53;;;9.70;99.90;;;;;;5023132;28;20061;-78
2023/06/06 00:40:08;;;;;;;4.85;3.30;;;9.70;99.90;;;;;;5008993;28;20745;-78
2023/06/06 00:42:33;;;;;;;5.40;2.70;;;9.80;99.90;;;;;;5042147;28;20033;-78
2023/06/06 00:44:59;;;;;;;14.77;3.95;;;9.70;99.90;;;;;;5043083;28;20392;-77
2023/06/06 00:47:25;;;;;;;9.43;3.78;;;9.70;99.90;;;;;;5021389;28;20147;-77
2023/06/06 00:49:51;;;;;;;5.50;3.15;;;9.70;99.90;;;;;;5026537;28;20048;-78
2023/06/06 00:52:19;;;;;;;10.13;3.50;;;9.70;99.90;;;;;;5022953;28;20274;-78
2023/06/06 00:54:45;;;;;;;8.23;3.20;;;9.70;99.90;;;;;;5025140;28;20138;-78
2023/06/06 00:57:12;;;;;;;5.55;3.30;;;9.70;99.90;;;;;;5041782;28;20027;-78
2023/06/06 00:59:38;;;;;;;7.43;3.65;;;9.60;99.90;;;;;;5011704;28;20029;-78
2023/06/06 01:02:09;;;;;;;9.80;3.60;;;9.60;99.90;;;;;;5004756;28;20033;-77
2023/06/06 01:04:41;;;;;;;6.70;3.28;;;9.60;99.90;;;;;;5026643;28;20052;-78
2023/06/06 01:07:09;;;;;;;7.35;3.20;;;9.60;99.90;;;;;;5024606;28;20029;-78
2023/06/06 01:09:36;;;;;;;6.57;3.53;;;9.50;99.90;;;;;;5005056;28;20331;-78
2023/06/06 01:12:17;;;;;;;7.22;3.78;;;9.40;99.90;;;;;;5005483;28;20401;-78
2023/06/06 01:15:19;;;;;;;8.63;3.25;;;9.40;99.90;;;;;;5005082;28;20055;-78
2023/06/06 01:17:46;;;;;;;10.23;3.47;;;9.40;99.90;;;;;;5005132;28;20040;-78
2023/06/06 01:20:12;;;;;;;8.55;3.20;;;9.40;99.90;;;;;;5020717;28;20046;-79
2023/06/06 01:22:38;;;;;;;11.02;3.50;;;9.30;99.90;;;;;;5024529;28;20037;-78
2023/06/06 01:25:06;;;;;;;12.73;4.03;;;9.30;99.90;;;;;;5024423;28;20035;-78
2023/06/06 01:27:33;;;;;;;7.32;3.63;;;9.30;99.90;;;;;;5020769;28;20033;-78
2023/06/06 01:30:00;;;;;;;8.85;3.40;;;9.30;99.90;;;;;;5026033;28;20029;-78
2023/06/06 01:32:25;;;;;;;6.93;3.17;;;9.30;99.90;;;;;;5031602;28;20031;-77
2023/06/06 01:35:06;;;;;;;5.72;3.60;;;9.30;99.90;;;;;;5031619;28;20037;-78
2023/06/06 01:37:58;;;;;;;9.68;3.28;;;9.30;99.90;;;;;;5030843;28;20033;-78
2023/06/06 01:40:26;;;;;;;9.68;3.47;;;9.20;99.90;;;;;;5036329;28;20055;-78
2023/06/06 01:42:53;;;;;;;6.93;3.65;;;9.10;99.90;;;;;;5042191;28;20055;-77
2023/06/06 01:45:23;;;;;;;11.85;3.90;;;9.20;99.90;;;;;;5040215;28;20032;-77
2023/06/06 01:47:50;;;;;;;6.82;3.53;;;9.20;99.90;;;;;;5025055;28;20045;-78
2023/06/06 01:50:16;;;;;;;10.73;4.18;;;9.10;99.90;;;;;;5034917;28;20025;-78
2023/06/06 01:52:41;;;;;;;8.52;3.38;;;9.10;99.90;;;;;;5021862;28;20401;-78
2023/06/06 01:55:07;;;;;;;8.80;3.63;;;9.10;99.90;;;;;;5025855;28;20053;-78
2023/06/06 01:57:33;;;;;;;10.48;3.80;;;9.10;99.90;;;;;;5027167;28;20468;-78
2023/06/06 02:00:00;;;;;;;10.52;3.53;;;9.10;99.90;;;;;;5004822;28;20149;-78
2023/06/06 02:02:26;;;;;;;12.68;3.20;;;9.10;99.90;;;;;;5003113;28;20110;-78
2023/06/06 02:04:52;;;;;;;9.35;3.55;;;9.10;99.90;;;;;;5028194;28;20037;-78
2023/06/06 02:07:17;;;;;;;7.57;3.75;;;9.10;99.90;;;;;;5021451;28;20025;-78
2023/06/06 02:09:43;;;;;;;8.07;3.88;;;9.00;99.90;;;;;;5021067;28;20033;-78
2023/06/06 02:12:09;;;;;;;7.75;3.75;;;9.00;99.90;;;;;;5020815;28;20581;-78
2023/06/06 02:14:36;;;;;;;7.20;3.25;;;9.00;99.90;;;;;;5024863;28;20075;-78
2023/06/06 02:17:02;;;;;;;11.98;3.70;;;9.00;99.90;;;;;;5039766;28;20037;-77
2023/06/06 02:19:28;;;;;;;7.55;3.72;;;9.00;99.90;;;;;;5032392;28;20025;-78
2023/06/06 02:21:53;;;;;;;6.65;3.92;;;9.00;99.90;;;;;;5023407;28;20384;-78
2023/06/06 02:24:20;;;;;;;7.65;3.70;;;9.00;99.90;;;;;;5024783;28;20568;-78
2023/06/06 02:26:47;;;;;;;7.03;3.60;;;9.00;99.90;;;;;;5039648;28;20036;-78
2023/06/06 02:29:13;;;;;;;11.63;4.22;;;9.00;99.90;;;;;;5026427;28;20037;-79
2023/06/06 02:31:39;;;;;;;10.40;3.72;;;9.00;99.90;;;;;;5037904;28;20107;-78
2023/06/06 02:34:05;;;;;;;8.75;4.22;;;8.90;99.90;;;;;;5005803;28;20067;-77
2023/06/06 02:36:31;;;;;;;11.10;4.80;;;9.00;99.90;;;;;;5021385;28;20075;-78
2023/06/06 02:38:57;;;;;;;8.13;3.88;;;9.00;99.90;;;;;;5036349;28;20048;-77
2023/06/06 02:41:23;;;;;;;9.02;4.03;;;9.00;99.90;;;;;;5037907;28;20543;-77
2023/06/06 02:43:49;;;;;;;6.15;4.03;;;9.00;99.90;;;;;;5056578;28;20044;-78
2023/06/06 02:46:15;;;;;;;7.03;3.90;;;9.00;99.90;;;;;;5014440;28;20041;-78
2023/06/06 02:48:45;;;;;;;8.85;4.25;;;9.00;99.90;;;;;;5015647;28;20037;-78
2023/06/06 02:51:11;;;;;;;8.32;4.45;;;9.00;99.90;;;;;;5012740;28;20029;-78
2023/06/06 02:53:40;;;;;;;8.45;3.95;;;8.90;99.90;;;;;;5022122;28;20417;-77
2023/06/06 02:56:06;;;;;;;11.30;4.05;;;8.90;99.90;;;;;;5022676;28;20040;-79
2023/06/06 02:58:32;;;;;;;10.32;4.28;;;9.00;99.90;;;;;;5030615;28;20037;-78
2023/06/06 03:00:58;;;;;;;8.93;4.03;;;9.00;99.90;;;;;;5025090;28;20529;-78
2023/06/06 03:03:24;;;;;;;10.65;3.95;;;9.00;99.90;;;;;;5022624;28;20123;-79
2023/06/06 03:05:54;;;;;;;9.00;4.80;;;8.90;99.90;;;;;;5001553;28;20082;-78
2023/06/06 03:08:21;;;;;;;9.30;4.35;;;9.00;99.90;;;;;;5021476;28;20025;-78
2023/06/06 03:10:47;;;;;;;9.50;4.38;;;8.90;99.90;;;;;;5015392;28;20036;-78
2023/06/06 03:13:13;;;;;;;7.50;4.38;;;8.90;99.90;;;;;;5020808;28;20381;-78
2023/06/06 03:15:46;;;;;;;9.23;4.15;;;8.90;99.90;;;;;;5006710;28;20033;-78
2023/06/06 03:18:16;;;;;;;10.50;4.63;;;8.90;99.90;;;;;;5020605;28;20033;-78
2023/06/06 03:20:48;;;;;;;9.00;4.53;;;8.90;99.90;;;;;;5031962;28;20041;-78
2023/06/06 03:23:14;;;;;;;10.18;3.83;;;8.90;99.90;;;;;;5023647;28;20120;-78
2023/06/06 03:25:41;;;;;;;8.13;4.55;;;8.90;99.90;;;;;;5041439;28;20064;-78
2023/06/06 03:28:07;;;;;;;10.05;4.72;;;8.90;99.90;;;;;;5023232;28;20072;-78
2023/06/06 03:30:33;;;;;;;9.65;4.30;;;8.80;99.90;;;;;;5007498;28;20053;-78
2023/06/06 03:33:00;;;;;;;10.40;4.57;;;8.90;99.90;;;;;;5020847;28;20339;-77
2023/06/06 03:35:26;;;;;;;8.25;4.15;;;8.80;99.90;;;;;;5005227;28;20030;-78
2023/06/06 03:37:55;;;;;;;10.80;4.30;;;8.90;99.90;;;;;;5004690;28;20041;-78
2023/06/06 03:40:22;;;;;;;6.93;4.07;;;8.90;99.90;;;;;;5006019;28;20026;-78
2023/06/06 03:42:50;;;;;;;9.80;4.85;;;8.90;99.90;;;;;;5003409;28;20102;-78
2023/06/06 03:45:16;;;;;;;9.00;4.40;;;8.90;99.90;;;;;;5003966;28;20025;-78
2023/06/06 03:47:41;;;;;;;7.55;4.13;;;9.00;99.90;;;;;;5003790;28;20097;-78
2023/06/06 03:50:08;;;;;;;7.75;4.38;;;9.00;99.90;;;;;;5015180;28;20037;-78
2023/06/06 03:52:33;;;;;;;12.02;4.90;;;9.00;99.90;;;;;;5044062;28;20432;-78
2023/06/06 03:54:59;;;;;;;7.97;4.30;;;9.10;99.90;;;;;;5018212;28;20029;-78
2023/06/06 03:57:25;;;;;;;8.35;4.93;;;9.10;99.90;;;;;;5009297;28;20030;-78
2023/06/06 03:59:50;;;;;;;9.88;4.95;;;9.00;99.90;;;;;;5043992;28;20036;-78
2023/06/06 04:02:19;;;;;;;9.65;4.35;;;9.10;99.90;;;;;;5026164;28;20047;-78
2023/06/06 04:04:45;;;;;;;11.23;4.63;;;9.00;99.90;;;;;;5038442;28;20043;-78
2023/06/06 04:07:11;;;;;;;11.02;4.72;;;9.00;99.90;;;;;;5005992;28;20124;-78
2023/06/06 04:09:36;;;;;;;8.95;4.32;;;9.10;99.90;;;;;;5031791;28;20112;-78
2023/06/06 04:12:02;;;;;;;8.75;4.30;;;9.10;99.90;;;;;;5022199;28;20038;-79
2023/06/06 04:14:28;;;;;;;9.63;4.40;;;9.10;99.90;;;;;;5025468;28;20044;-78
2023/06/06 04:16:54;;;;;;;8.18;4.68;;;9.20;99.90;;;;;;5012998;28;20128;-79
2023/06/06 04:19:19;;;;;;;9.82;4.13;;;9.20;99.90;;;;;;5007227;28;20470;-78
2023/06/06 04:21:48;;;;;;;8.55;4.75;;;9.20;99.90;;;;;;5031649;28;20049;-78
2023/06/06 04:24:14;;;;;;;11.73;4.88;;;9.20;99.90;;;;;;5023110;28;20095;-77
2023/06/06 04:26:40;;;;;;;7.80;4.35;;;9.30;99.90;;;;;;5024578;28;20034;-78
2023/06/06 04:29:06;;;;;;;9.50;4.80;;;9.30;99.90;;;;;;5010754;28;20033;-78
2023/06/06 04:31:33;;;;;;;7.95;4.40;;;9.30;99.90;;;;;;5024299;28;20060;-78
2023/06/06 04:34:00;;;;;;;12.70;4.57;;;9.40;99.90;;;;;;5032727;28;20075;-78
2023/06/06 04:36:26;;;;;;;8.57;5.03;;;9.40;99.90;;;;;;5034973;28;22098;-78
2023/06/06 04:39:00;;;;;;;8.00;4.43;;;9.40;99.90;;;;;;5006277;28;20025;-78
2023/06/06 04:41:25;;;;;;;9.57;5.50;;;9.60;99.90;;;;;;5027462;28;20029;-78
2023/06/06 04:43:51;;;;;;;13.13;4.90;;;9.70;99.90;;;;;;5042975;28;20075;-78
2023/06/06 04:46:23;;;;;;;9.23;4.20;;;9.80;99.90;;;;;;5015569;28;20137;-78
2023/06/06 04:48:56;;;;;;;6.05;4.28;;;9.80;99.90;;;;;;5005701;28;20061;-78
2023/06/06 04:51:33;;;;;;;8.27;4.40;;;9.80;99.90;;;;;;5036806;28;20025;-78
2023/06/06 04:54:07;;;;;;;9.23;5.00;;;9.90;99.90;;;;;;5014375;28;20034;-78
2023/06/06 04:56:34;;;;;;;5.22;3.92;;;10.00;99.90;;;;;;5031423;28;20041;-78
2023/06/06 04:59:06;;;;;;;8.75;4.53;;;10.20;99.90;;;;;;5019892;28;20508;-78
2023/06/06 05:01:36;;;;;;;10.25;4.60;;;10.40;99.90;;;;;;5022665;28;20063;-78
2023/06/06 05:04:03;;;;;;;12.38;4.63;;;10.60;99.90;;;;;;5031117;28;20732;-78
2023/06/06 05:06:31;;;;;;;8.35;4.20;;;10.90;99.90;;;;;;5040049;28;20037;-78
2023/06/06 05:09:06;;;;;;;10.73;5.03;;;11.10;99.90;;;;;;5022792;28;20575;-77
2023/06/06 05:11:32;;;;;;;7.18;3.72;;;11.30;99.90;;;;;;5041972;28;20025;-78
2023/06/06 05:13:57;;;;;;;6.97;4.30;;;11.50;99.90;;;;;;5032923;28;20108;-78
2023/06/06 05:16:23;;;;;;;10.15;4.50;;;11.70;99.90;;;;;;5009002;28;20488;-78
2023/06/06 05:18:48;;;;;;;10.35;4.18;;;11.80;99.90;;;;;;5009959;28;20120;-78
2023/06/06 05:21:15;;;;;;;10.65;4.53;;;11.80;99.90;;;;;;5036213;28;20130;-78
2023/06/06 05:23:40;;;;;;;8.60;3.70;;;12.00;99.90;;;;;;5040090;28;20677;-78
2023/06/06 05:26:06;;;;;;;11.13;4.20;;;12.10;99.90;;;;;;5027370;28;20024;-78
2023/06/06 05:28:32;;;;;;;13.88;4.05;;;12.30;99.90;;;;;;5019179;28;20036;-78
2023/06/06 05:30:58;;;;;;;6.47;3.67;;;12.40;99.90;;;;;;5020680;28;20052;-79
2023/06/06 05:33:26;;;;;;;9.60;3.70;;;12.50;99.90;;;;;;5014390;28;20045;-78
2023/06/06 05:35:55;;;;;;;10.00;3.92;;;12.30;99.90;;;;;;5004575;28;20995;-78
2023/06/06 05:38:21;;;;;;;11.25;3.67;;;12.20;99.90;;;;;;5013517;28;20043;-78
2023/06/06 05:40:47;;;;;;;6.53;3.63;;;12.30;99.90;;;;;;5021445;28;20108;-79
2023/06/06 05:43:14;;;;;;;9.68;3.50;;;12.50;99.90;;;;;;5015963;28;20044;-78
2023/06/06 05:45:39;;;;;;;9.63;3.58;;;12.60;99.90;;;;;;5042100;28;20029;-79
2023/06/06 05:48:05;;;;;;;11.07;4.70;;;12.80;99.90;;;;;;5026701;28;20045;-78
2023/06/06 05:50:31;;;;;;;10.63;3.45;;;12.90;99.90;;;;;;5003886;28;20025;-78
2023/06/06 05:52:57;;;;;;;8.35;3.58;;;13.00;99.90;;;;;;5020623;28;20477;-79
2023/06/06 05:55:34;;;;;;;7.68;3.80;;;13.30;99.90;;;;;;5005136;28;21027;-78
2023/06/06 05:58:01;;;;;;;5.88;3.50;;;13.50;99.90;;;;;;5030447;28;20478;-78
2023/06/06 06:00:28;;;;;;;10.93;3.83;;;13.50;99.90;;;;;;5040526;28;20016;-78
2023/06/06 06:02:58;;;;;;;7.85;3.60;;;13.80;99.90;;;;;;5015889;28;20080;-78
2023/06/06 06:05:29;;;;;;;8.07;3.67;;;13.90;99.90;;;;;;5023332;28;20045;-78
2023/06/06 06:07:59;;;;;;;48.25;23.52;;;14.10;99.90;;;;;;5021030;28;20132;-78
2023/06/06 06:10:25;;;;;;;13.35;4.40;;;14.10;99.90;;;;;;5015009;28;20081;-78
2023/06/06 06:12:51;;;;;;;6.38;3.35;;;14.20;99.90;;;;;;5024671;28;20451;-78
2023/06/06 06:15:16;;;;;;;8.38;3.70;;;14.50;99.90;;;;;;5013502;28;20113;-79
2023/06/06 06:17:42;;;;;;;8.43;3.40;;;14.60;99.90;;;;;;5006154;28;20319;-78
2023/06/06 06:20:09;;;;;;;7.03;3.30;;;14.80;99.90;;;;;;5007098;28;20055;-78
2023/06/06 06:22:36;;;;;;;8.82;3.25;;;14.80;99.90;;;;;;5018293;28;20080;-79
2023/06/06 06:25:08;;;;;;;16.08;7.20;;;14.90;99.90;;;;;;5006585;28;20039;-78
2023/06/06 06:27:35;;;;;;;8.98;3.60;;;14.80;99.90;;;;;;5021632;28;20040;-78
2023/06/06 06:30:01;;;;;;;7.28;3.38;;;14.60;99.90;;;;;;5022637;28;20032;-78
2023/06/06 06:32:27;;;;;;;5.22;3.35;;;14.60;99.90;;;;;;5017833;28;20029;-78
2023/06/06 06:34:53;;;;;;;8.18;3.40;;;14.70;99.90;;;;;;5020104;28;20033;-77
2023/06/06 06:37:18;;;;;;;10.75;3.28;;;15.10;99.90;;;;;;5008874;28;20215;-78
2023/06/06 06:39:45;;;;;;;8.50;4.63;;;15.20;99.90;;;;;;5029590;28;20420;-79
2023/06/06 06:42:11;;;;;;;14.30;4.90;;;15.50;99.90;;;;;;5009679;28;20084;-77
2023/06/06 06:44:37;;;;;;;6.97;3.25;;;15.90;99.90;;;;;;5003107;28;20115;-79
2023/06/06 06:47:03;;;;;;;7.90;3.13;;;16.00;99.90;;;;;;5033661;28;20107;-78
2023/06/06 06:49:29;;;;;;;9.00;3.30;;;15.60;99.90;;;;;;5020808;28;20048;-78
2023/06/06 06:51:56;;;;;;;11.40;3.60;;;15.60;99.90;;;;;;5040128;28;20021;-78
2023/06/06 06:54:24;;;;;;;7.28;2.88;;;15.60;99.90;;;;;;5040923;28;20025;-78
2023/06/06 06:56:51;;;;;;;9.30;3.47;;;15.70;99.80;;;;;;5041097;28;20449;-77
2023/06/06 06:59:17;;;;;;;9.18;3.45;;;15.60;99.90;;;;;;5007124;28;20106;-78
2023/06/06 07:01:48;;;;;;;6.20;3.13;;;15.60;99.90;;;;;;5021535;28;20151;-79
2023/06/06 07:04:14;;;;;;;12.15;3.50;;;15.40;99.90;;;;;;5009909;28;20043;-78
2023/06/06 07:06:41;;;;;;;9.75;3.85;;;15.50;99.90;;;;;;5021068;28;20121;-78
2023/06/06 07:09:06;;;;;;;7.88;3.88;;;15.70;99.90;;;;;;5005013;28;20052;-79
2023/06/06 07:11:32;;;;;;;9.48;4.68;;;15.70;99.90;;;;;;5012971;28;20121;-78
2023/06/06 07:13:58;;;;;;;9.85;4.05;;;15.80;99.90;;;;;;4680110;28;10000426;-78
2023/06/06 07:16:25;;;;;;;7.90;3.50;;;15.90;99.90;;;;;;5003147;28;20034;-78
2023/06/06 07:18:52;;;;;;;8.95;3.83;;;16.10;99.90;;;;;;5034443;28;20028;-78
2023/06/06 07:21:21;;;;;;;9.57;3.70;;;16.20;99.90;;;;;;5018191;28;20025;-77
2023/06/06 07:23:50;;;;;;;8.10;3.22;;;16.40;99.00;;;;;;5030575;28;20067;-78
2023/06/06 07:26:19;;;;;;;10.30;3.70;;;16.80;98.80;;;;;;5020934;28;20599;-77
2023/06/06 07:28:46;;;;;;;8.38;3.65;;;16.90;99.80;;;;;;5011425;28;20041;-78
2023/06/06 07:31:13;;;;;;;6.72;3.13;;;16.90;98.60;;;;;;5013160;28;20028;-79
2023/06/06 07:33:38;;;;;;;10.13;3.17;;;16.60;98.70;;;;;;5025032;28;20041;-79
2023/06/06 07:36:05;;;;;;;8.23;3.55;;;16.40;98.60;;;;;;5007942;28;20022;-77
2023/06/06 07:38:30;;;;;;;8.75;3.47;;;16.50;98.50;;;;;;5004364;28;20136;-78
2023/06/06 07:40:56;;;;;;;13.77;3.30;;;16.90;98.90;;;;;;5000107;28;20029;-78
2023/06/06 07:43:22;;;;;;;11.10;3.58;;;17.40;97.50;;;;;;5002439;28;20032;-78
2023/06/06 07:45:47;;;;;;;10.13;3.10;;;17.80;97.10;;;;;;5018578;28;20037;-78
2023/06/06 07:48:13;;;;;;;10.95;3.58;;;17.80;94.80;;;;;;5007050;28;20041;-79
2023/06/06 07:50:38;;;;;;;11.07;3.83;;;18.20;95.20;;;;;;5011455;28;20615;-78
2023/06/06 07:53:05;;;;;;;12.23;3.53;;;18.40;95.40;;;;;;5019687;28;20040;-78
2023/06/06 07:55:30;;;;;;;10.20;3.50;;;18.60;94.10;;;;;;5017832;28;20128;-79
2023/06/06 07:57:57;;;;;;;11.45;3.00;;;18.40;93.80;;;;;;5014396;28;20083;-79
2023/06/06 08:00:23;;;;;;;5.85;2.97;;;18.30;93.90;;;;;;5033338;28;20682;-78
2023/06/06 08:02:49;;;;;;;7.20;3.10;;;19.50;94.20;;;;;;5012271;28;20033;-78
2023/06/06 08:05:17;;;;;;;8.07;3.08;;;19.80;90.80;;;;;;5016964;28;20488;-80
2023/06/06 08:07:42;;;;;;;7.95;3.45;;;19.80;91.90;;;;;;5034532;28;20021;-79
2023/06/06 08:10:08;;;;;;;7.75;3.35;;;19.40;91.90;;;;;;5013339;28;20742;-78
2023/06/06 08:12:35;;;;;;;9.18;3.67;;;18.40;93.10;;;;;;5019324;28;20029;-78
2023/06/06 08:15:02;;;;;;;10.57;3.70;;;18.40;94.00;;;;;;5014919;28;20029;-78
2023/06/06 08:17:27;;;;;;;9.18;3.08;;;18.80;95.20;;;;;;5029594;28;20033;-78
2023/06/06 08:19:53;;;;;;;10.57;3.33;;;18.80;94.00;;;;;;5021020;28;20075;-78
2023/06/06 08:22:19;;;;;;;9.25;3.13;;;19.50;93.90;;;;;;5014535;28;20041;-78
2023/06/06 08:24:44;;;;;;;7.38;2.55;;;21.20;94.20;;;;;;5013779;28;20123;-79
2023/06/06 08:27:13;;;;;;;6.68;2.80;;;24.50;86.20;;;;;;5005427;28;20106;-80
2023/06/06 08:29:38;;;;;;;8.57;2.50;;;27.50;68.20;;;;;;5010668;28;20854;-78
2023/06/06 08:32:06;;;;;;;6.38;2.45;;;29.10;50.80;;;;;;5026039;28;21107;-79
2023/06/06 08:34:32;;;;;;;6.53;2.50;;;29.00;48.30;;;;;;4685060;28;10000192;-77
2023/06/06 08:36:57;;;;;;;8.02;2.60;;;29.60;44.50;;;;;;5028255;28;20531;-78
2023/06/06 08:39:23;;;;;;;6.38;2.40;;;29.10;44.50;;;;;;5002100;28;20033;-77
2023/06/06 08:41:53;;;;;;;7.57;2.42;;;29.30;45.20;;;;;;4999236;28;20867;-79
2023/06/06 08:44:21;;;;;;;10.73;2.83;;;31.10;42.90;;;;;;5031323;28;20072;-79
2023/06/06 08:46:50;;;;;;;9.10;2.67;;;30.70;39.00;;;;;;5009440;28;20048;-79
2023/06/06 08:49:20;;;;;;;7.90;2.80;;;29.60;39.80;;;;;;5014869;28;20029;-79
2023/06/06 08:51:48;;;;;;;7.50;2.70;;;27.40;42.40;;;;;;5016946;28;20040;-78
2023/06/06 08:54:14;;;;;;;7.97;2.65;;;25.10;46.20;;;;;;5018744;28;20025;-79
2023/06/06 08:56:43;;;;;;;9.15;2.88;;;24.90;54.00;;;;;;5033999;28;20128;-78
2023/06/06 08:59:10;;;;;;;14.48;3.20;;;24.10;51.90;;;;;;5008771;28;20041;-78
2023/06/06 09:01:39;;;;;;;10.30;3.17;;;22.90;54.40;;;;;;5010435;28;20097;-78
2023/06/06 09:04:08;;;;;;;7.35;3.00;;;22.20;57.70;;;;;;5019471;28;20552;-78
2023/06/06 09:06:38;;;;;;;7.43;2.60;;;22.20;62.30;;;;;;5018301;28;20037;-78
2023/06/06 09:09:07;;;;;;;7.45;2.92;;;22.50;59.80;;;;;;5028181;28;20040;-78
2023/06/06 09:11:33;;;;;;;4.75;2.53;;;24.70;58.70;;;;;;5029504;28;20388;-78
2023/06/06 09:13:58;;;;;;;8.57;2.60;;;27.20;53.80;;;;;;5023876;28;20041;-79
2023/06/06 09:16:26;;;;;;;7.47;2.80;;;29.00;49.50;;;;;;5019854;28;20037;-78
2023/06/06 09:18:51;;;;;;;6.03;2.42;;;28.40;44.50;;;;;;5011774;28;20029;-78
2023/06/06 09:21:18;;;;;;;9.80;2.67;;;28.30;47.10;;;;;;5008215;28;20109;-79
2023/06/06 09:23:45;;;;;;;7.22;2.80;;;29.90;47.10;;;;;;5008851;28;20493;-78
2023/06/06 09:26:21;;;;;;;7.82;2.75;;;31.10;39.40;;;;;;5014817;28;20025;-78
2023/06/06 09:28:48;;;;;;;7.40;2.28;;;30.20;39.80;;;;;;5030855;28;20033;-79
2023/06/06 09:31:32;;;;;;;7.13;2.42;;;31.30;39.70;;;;;;5004944;28;20057;-78
2023/06/06 09:33:59;;;;;;;6.35;2.40;;;31.10;37.30;;;;;;5030931;28;20023;-79
2023/06/06 09:36:29;;;;;;;5.60;2.78;;;29.70;39.00;;;;;;5023553;28;20032;-78
2023/06/06 09:39:03;;;;;;;6.63;2.78;;;28.40;41.60;;;;;;5039525;28;20029;-79
2023/06/06 09:41:29;;;;;;;7.05;2.67;;;27.40;42.50;;;;;;5039786;28;20044;-78
2023/06/06 09:43:55;;;;;;;6.63;2.45;;;27.70;43.70;;;;;;5039652;28;20041;-79
2023/06/06 09:46:20;;;;;;;9.32;3.00;;;27.70;42.30;;;;;;5014498;28;20052;-78
2023/06/06 09:48:56;;;;;;;7.95;3.10;;;26.20;46.00;;;;;;5040640;28;20829;-79
2023/06/06 09:51:22;;;;;;;6.93;2.85;;;26.20;45.90;;;;;;5021956;28;20029;-78
2023/06/06 09:53:51;;;;;;;5.95;2.40;;;26.50;45.30;;;;;;5029981;28;20052;-79
2023/06/06 09:56:19;;;;;;;8.52;2.70;;;28.00;44.90;;;;;;5025464;28;20029;-78
2023/06/06 09:58:46;;;;;;;7.50;2.50;;;29.00;39.40;;;;;;5021220;28;20030;-79
2023/06/06 10:01:12;;;;;;;7.63;2.50;;;29.80;40.70;;;;;;5006967;28;20597;-78
2023/06/06 10:03:38;;;;;;;9.38;2.20;;;30.20;37.20;;;;;;5003986;28;20048;-79
2023/06/06 10:06:06;;;;;;;8.43;2.30;;;32.30;38.40;;;;;;5014209;28;20040;-78
2023/06/06 10:08:33;;;;;;;6.07;2.55;;;33.10;36.70;;;;;;5017196;28;20481;-78
2023/06/06 10:10:59;;;;;;;7.90;2.42;;;33.10;37.40;;;;;;5021875;28;20398;-79
2023/06/06 10:13:27;;;;;;;8.75;2.65;;;34.40;36.60;;;;;;5009134;28;20037;-79
2023/06/06 10:15:53;;;;;;;6.93;2.67;;;33.30;33.60;;;;;;5023851;28;20032;-79
2023/06/06 10:18:19;;;;;;;5.15;2.42;;;34.60;34.40;;;;;;5022053;28;20037;-78
2023/06/06 10:20:46;;;;;;;7.20;2.45;;;35.00;33.70;;;;;;5022773;28;20033;-78
2023/06/06 10:23:12;;;;;;;8.73;3.40;;;35.00;32.60;;;;;;5006571;28;20067;-78
2023/06/06 10:25:38;;;;;;;12.90;5.85;;;35.10;32.00;;;;;;5021666;28;20049;-80
2023/06/06 10:28:08;;;;;;;12.25;5.60;;;34.40;32.60;;;;;;5027167;28;20905;-79
2023/06/06 10:30:42;;;;;;;11.00;4.97;;;34.60;31.30;;;;;;5020662;28;21889;-79
2023/06/06 10:33:20;;;;;;;11.02;4.78;;;34.40;32.00;;;;;;5023586;28;20025;-78
2023/06/06 10:35:52;;;;;;;7.75;3.60;;;35.30;31.80;;;;;;5022380;28;20044;-78
2023/06/06 10:38:18;;;;;;;7.60;3.00;;;34.90;33.10;;;;;;5023837;28;20080;-78
2023/06/06 10:41:15;;;;;;;7.70;2.70;;;35.60;30.90;;;;;;5022297;28;20114;-78
2023/06/06 10:43:47;;;;;;;6.30;2.50;;;34.10;30.10;;;;;;5018065;28;20101;-78
2023/06/06 10:46:12;;;;;;;7.03;2.42;;;33.80;31.70;;;;;;5020760;28;21116;-78
2023/06/06 10:48:39;;;;;;;8.43;2.53;;;33.70;31.40;;;;;;5027297;28;20065;-78
2023/06/06 10:51:06;;;;;;;6.03;2.47;;;33.50;31.20;;;;;;5021642;28;20030;-78
2023/06/06 10:53:32;;;;;;;6.80;2.63;;;34.00;34.20;;;;;;5026202;28;20036;-78
2023/06/06 10:55:58;;;;;;;7.35;2.30;;;33.00;33.80;;;;;;5006140;28;20505;-78
2023/06/06 10:58:33;;;;;;;6.93;2.10;;;33.30;36.40;;;;;;4673343;28;10000531;-78
2023/06/06 11:01:04;;;;;;;6.43;2.15;;;31.80;30.60;;;;;;5022796;28;20030;-78
2023/06/06 11:03:41;;;;;;;9.75;2.40;;;32.90;34.60;;;;;;5024104;28;20095;-79
2023/06/06 11:06:11;;;;;;;7.70;2.75;;;32.20;32.40;;;;;;5031905;28;20029;-78
2023/06/06 11:08:44;;;;;;;10.25;2.80;;;32.30;32.60;;;;;;5017149;28;20021;-77
2023/06/06 11:11:31;;;;;;;7.10;2.47;;;32.50;31.40;;;;;;5014491;28;20033;-78
2023/06/06 11:14:02;;;;;;;5.22;2.40;;;32.30;31.30;;;;;;5028686;28;20107;-77
2023/06/06 11:16:40;;;;;;;5.00;2.65;;;32.70;34.60;;;;;;5030948;28;20060;-78
2023/06/06 11:19:16;;;;;;;7.18;2.60;;;31.70;32.60;;;;;;5032712;28;20103;-78
2023/06/06 11:21:45;;;;;;;7.95;2.80;;;31.20;34.10;;;;;;5032421;28;20057;-78
2023/06/06 11:24:11;;;;;;;6.03;2.55;;;30.30;34.50;;;;;;5029084;28;20753;-78
2023/06/06 11:26:38;;;;;;;6.22;2.65;;;29.80;38.90;;;;;;5020681;28;20068;-78
2023/06/06 11:29:07;;;;;;;5.95;2.50;;;29.30;36.50;;;;;;5010426;28;20079;-78
2023/06/06 11:31:35;;;;;;;7.15;2.90;;;28.60;37.80;;;;;;5033127;28;20488;-78
2023/06/06 11:34:08;;;;;;;7.25;2.60;;;27.60;40.60;;;;;;5029576;28;20477;-78
2023/06/06 11:36:34;;;;;;;7.07;2.78;;;26.30;43.20;;;;;;5015918;28;20025;-78
2023/06/06 11:39:04;;;;;;;11.70;2.95;;;25.10;44.20;;;;;;5031873;28;20029;-78
2023/06/06 11:41:33;;;;;;;6.32;2.60;;;25.00;47.80;;;;;;5032364;28;20036;-78
2023/06/06 11:43:59;;;;;;;7.93;2.58;;;25.40;48.30;;;;;;5036781;28;20063;-79
2023/06/06 11:46:25;;;;;;;4.38;2.50;;;26.10;46.20;;;;;;5014638;28;20045;-78
2023/06/06 11:49:00;;;;;;;6.93;2.28;;;25.90;43.10;;;;;;5011935;28;20033;-79
2023/06/06 11:51:26;;;;;;;8.75;2.70;;;25.40;46.80;;;;;;5012769;28;20047;-79
2023/06/06 11:53:52;;;;;;;6.85;2.75;;;25.20;48.20;;;;;;5026497;28;20128;-79
2023/06/06 11:56:19;;;;;;;7.05;2.78;;;25.20;46.90;;;;;;5007721;28;20025;-78
2023/06/06 11:58:45;;;;;;;6.25;2.33;;;24.50;50.50;;;;;;5010828;28;20152;-79
2023/06/06 12:01:12;;;;;;;7.38;2.70;;;24.30;51.70;;;;;;5013106;28;20108;-79
2023/06/06 12:03:38;;;;;;;5.80;2.63;;;24.60;53.30;;;;;;5024592;28;20037;-78
2023/06/06 12:06:06;;;;;;;6.88;2.20;;;24.40;48.70;;;;;;5005725;28;20127;-79
2023/06/06 12:08:36;;;;;;;7.78;2.67;;;23.90;47.00;;;;;;5015498;28;20095;-79
2023/06/06 12:11:21;;;;;;;7.35;2.78;;;23.70;50.50;;;;;;5021994;28;20040;-79
2023/06/06 12:13:47;;;;;;;5.32;2.60;;;24.10;58.80;;;;;;5011061;28;20607;-79
2023/06/06 12:16:28;;;;;;;5.53;2.80;;;23.80;52.20;;;;;;5034984;28;20910;-79
2023/06/06 12:18:54;;;;;;;9.20;2.88;;;24.10;56.80;;;;;;5010040;28;20033;-78
2023/06/06 12:21:21;;;;;;;7.35;2.47;;;24.70;56.40;;;;;;5022846;28;20052;-78
2023/06/06 12:23:47;;;;;;;6.18;2.45;;;25.00;50.40;;;;;;5033916;28;20044;-78
2023/06/06 12:26:16;;;;;;;8.50;2.83;;;25.10;53.50;;;;;;5030248;28;20029;-77
2023/06/06 12:28:58;;;;;;;6.00;2.53;;;25.00;53.70;;;;;;5016512;28;20592;-78
2023/06/06 12:31:24;;;;;;;6.70;2.67;;;24.50;52.40;;;;;;5024757;28;20052;-77
2023/06/06 12:33:53;;;;;;;4.25;2.38;;;24.70;58.70;;;;;;5016125;28;20158;-78
2023/06/06 12:36:20;;;;;;;8.45;2.60;;;25.00;52.90;;;;;;5017334;28;20029;-78
2023/06/06 12:38:54;;;;;;;6.88;2.47;;;24.70;55.60;;;;;;5005105;28;20040;-77
2023/06/06 12:41:21;;;;;;;6.38;2.67;;;24.90;55.80;;;;;;5022258;28;20026;-77
2023/06/06 12:43:47;;;;;;;9.40;2.80;;;24.90;54.90;;;;;;5003720;28;20154;-77
2023/06/06 12:46:12;;;;;;;5.85;2.50;;;25.10;55.70;;;;;;5019364;28;20045;-77
2023/06/06 12:48:38;;;;;;;7.80;2.83;;;24.30;52.60;;;;;;5007549;28;20037;-77
2023/06/06 12:51:09;;;;;;;5.50;2.38;;;24.00;55.20;;;;;;5012544;28;20163;-77